KPHF/PHF METAR and TAF weather

Enter ICAO airport designator
Station Type Date Time Source
KPHF METAR 2022/12/02 23:54 UTC NOAA

KPHF 022354Z 10003KT 10SM CLR 04/02 A3048 RMK AO2 SLP320 T00390017 10122 20039 50002


Station Type Date Time Source
KPHF Decoded METAR 2022/12/02 23:54 UTC NOAA

WILLIAMSBURG INTERNATIONAL AIRPORT , VA, United States (KPHF) 37-08N 76-30W 12M
Dec 02, 2022 - 06:54 PM EST / 2022.12.02 2354 UTC
Wind: from the E (100 degrees) at 3 MPH (3 KT):0
Visibility: 10 mile(s):0
Sky conditions: clear
Temperature: 39.0 F (3.9 C)
Dew Point: 35.1 F (1.7 C)
Relative Humidity: 85%
Pressure (altimeter): 30.48 in. Hg (1032 hPa)
Pressure tendency: 0.01 inches (0.2 hPa) higher than three hours ago
ob: KPHF 022354Z 10003KT 10SM CLR 04/02 A3048 RMK AO2 SLP320 T00390017 10122 20039 50002
cycle: 0

Station Type Date Time Source
KPHF TAF 2022/12/02 18:22 UTC NOAA

TAF KPHF 021720Z 0218/0318 20012KT P6SM SKC
FM022300 17005KT P6SM SCT150
FM030500 19006KT P6SM BKN150
FM031000 19007KT P6SM BKN100 WS020/21040KT
FM031500 20011G20KT 6SM -SHRA BR OVC070

Example: see airport list